Time;durP1;ratioP1;P1;durP2;ratioP2;P2;SDS_P1;SDS_P2;PMS_P1;PMS_P2;Temp;Humidity;BMP_temperature;BMP_pressure;BME280_temperature;BME280_humidity;BME280_pressure;Samples;Min_cycle;Max_cycle;Signal;HPM_P1;HPM_P2
2023/06/05 00:01:44;;;;;;;0.10;0.10;;;11.90;99.90;;;;;;5021844;28;20712;-51
2023/06/05 00:04:09;;;;;;;0.10;0.10;;;11.90;99.90;;;;;;5034128;28;20040;-51
2023/06/05 00:06:37;;;;;;;0.20;0.20;;;11.90;99.90;;;;;;5033630;28;20376;-59
2023/06/05 00:09:05;;;;;;;0.10;0.10;;;11.90;99.90;;;;;;5034044;28;20025;-53
2023/06/05 00:11:31;;;;;;;0.20;0.20;;;11.80;99.90;;;;;;5016440;28;20033;-56
2023/06/05 00:13:56;;;;;;;0.10;0.10;;;11.70;99.90;;;;;;5033842;28;20049;-53
2023/06/05 00:16:22;;;;;;;0.10;0.10;;;11.70;99.90;;;;;;5033664;28;20033;-51
2023/06/05 00:18:48;;;;;;;0.20;0.20;;;11.70;99.90;;;;;;5033774;28;20388;-50
2023/06/05 00:21:13;;;;;;;0.10;0.10;;;11.60;99.90;;;;;;5034118;28;20132;-53
2023/06/05 00:23:39;;;;;;;0.20;0.20;;;11.60;99.90;;;;;;5033659;28;20535;-53
2023/06/05 00:26:05;;;;;;;0.20;0.20;;;11.60;99.90;;;;;;5033725;28;20029;-51
2023/06/05 00:28:30;;;;;;;0.10;0.10;;;11.60;99.90;;;;;;5033340;28;20025;-52
2023/06/05 00:30:56;;;;;;;0.10;0.10;;;11.60;99.90;;;;;;5033576;28;20033;-54
2023/06/05 00:33:21;;;;;;;0.10;0.10;;;11.60;99.90;;;;;;5033406;28;20087;-51
2023/06/05 00:35:47;;;;;;;0.20;0.20;;;11.50;99.90;;;;;;5033774;28;20103;-52
2023/06/05 00:38:13;;;;;;;0.20;0.20;;;11.50;99.90;;;;;;5033318;28;20056;-52
2023/06/05 00:40:38;;;;;;;0.10;0.10;;;11.50;99.90;;;;;;5033356;28;20022;-54
2023/06/05 00:43:05;;;;;;;0.20;0.20;;;11.50;99.90;;;;;;5033442;28;20131;-51
2023/06/05 00:45:31;;;;;;;0.20;0.20;;;11.50;99.90;;;;;;5033063;28;20033;-54
2023/06/05 00:47:57;;;;;;;0.10;0.10;;;11.50;99.90;;;;;;5033349;28;20033;-52
2023/06/05 00:50:23;;;;;;;0.20;0.20;;;11.50;99.90;;;;;;5032922;28;20151;-57
2023/06/05 00:52:49;;;;;;;0.20;0.20;;;11.50;99.90;;;;;;5033054;28;20392;-51
2023/06/05 00:55:15;;;;;;;0.30;0.30;;;11.50;99.90;;;;;;5033291;28;20116;-51
2023/06/05 00:57:44;;;;;;;0.10;0.10;;;11.40;99.90;;;;;;5032875;28;20528;-51
2023/06/05 01:00:12;;;;;;;0.10;0.10;;;11.40;99.90;;;;;;5033068;28;20488;-50
2023/06/05 01:02:39;;;;;;;0.20;0.20;;;11.50;99.90;;;;;;5032931;28;20271;-54
2023/06/05 01:05:06;;;;;;;0.20;0.20;;;11.40;99.90;;;;;;5033235;28;20036;-53
2023/06/05 01:07:34;;;;;;;0.20;0.20;;;11.40;99.90;;;;;;5032751;28;20048;-51
2023/06/05 01:10:05;;;;;;;0.20;0.20;;;11.40;99.90;;;;;;5032837;28;20087;-52
2023/06/05 01:12:40;;;;;;;0.20;0.20;;;11.30;99.90;;;;;;5032895;28;20041;-54
2023/06/05 01:15:07;;;;;;;0.10;0.10;;;11.30;99.90;;;;;;5031767;28;20045;-50
2023/06/05 01:17:34;;;;;;;0.10;0.10;;;11.40;99.90;;;;;;5032855;28;20041;-52
2023/06/05 01:20:06;;;;;;;0.20;0.20;;;11.30;99.90;;;;;;5032536;28;20032;-51
2023/06/05 01:22:32;;;;;;;0.20;0.20;;;11.30;99.90;;;;;;5032801;28;20080;-54
2023/06/05 01:24:59;;;;;;;0.20;0.20;;;11.30;99.90;;;;;;5032421;28;20701;-56
2023/06/05 01:27:50;;;;;;;0.20;0.20;;;11.20;99.90;;;;;;5032389;28;20033;-53
2023/06/05 01:30:28;;;;;;;0.20;0.20;;;11.20;99.90;;;;;;5032542;28;20067;-51
2023/06/05 01:33:02;;;;;;;0.20;0.20;;;11.10;99.90;;;;;;5032536;28;20088;-56
2023/06/05 01:35:29;;;;;;;0.10;0.10;;;11.10;99.90;;;;;;5032273;28;20387;-58
2023/06/05 01:37:58;;;;;;;0.40;0.40;;;11.00;99.90;;;;;;5032367;28;20037;-57
2023/06/05 01:40:24;;;;;;;0.25;0.25;;;11.00;99.90;;;;;;5032186;28;20045;-52
2023/06/05 01:42:51;;;;;;;0.40;0.40;;;11.00;99.90;;;;;;5032333;28;20068;-51
2023/06/05 01:45:17;;;;;;;0.20;0.20;;;11.00;99.90;;;;;;5032216;28;20013;-53
2023/06/05 01:47:45;;;;;;;0.20;0.20;;;10.90;99.90;;;;;;5032433;28;20025;-53
2023/06/05 01:50:13;;;;;;;1.05;1.05;;;10.90;99.90;;;;;;5031968;28;20022;-52
2023/06/05 01:52:41;;;;;;;0.20;0.20;;;10.80;99.90;;;;;;5032356;28;20057;-53
2023/06/05 01:55:12;;;;;;;0.30;0.30;;;10.80;99.90;;;;;;5031730;28;20591;-56
2023/06/05 01:57:38;;;;;;;0.50;0.30;;;10.80;99.90;;;;;;5031731;28;20035;-53
2023/06/05 02:00:08;;;;;;;0.20;0.20;;;10.70;99.90;;;;;;5032029;28;20112;-53
2023/06/05 02:02:34;;;;;;;0.52;0.52;;;10.70;99.90;;;;;;5014720;28;20033;-56
2023/06/05 02:04:59;;;;;;;0.17;0.17;;;10.60;99.90;;;;;;5031668;28;20029;-51
2023/06/05 02:07:25;;;;;;;0.20;0.20;;;10.60;99.90;;;;;;5031821;28;20025;-54
2023/06/05 02:09:50;;;;;;;0.77;0.40;;;10.60;99.90;;;;;;5013917;28;20041;-55
2023/06/05 02:12:16;;;;;;;0.20;0.20;;;10.60;99.90;;;;;;5031599;28;20127;-53
2023/06/05 02:14:44;;;;;;;0.43;0.30;;;10.60;99.90;;;;;;5031563;28;20028;-52
2023/06/05 02:17:13;;;;;;;0.20;0.20;;;10.60;99.90;;;;;;5013874;28;20033;-55
2023/06/05 02:19:39;;;;;;;0.50;0.50;;;10.60;99.90;;;;;;5031477;28;20026;-52
2023/06/05 02:22:04;;;;;;;0.20;0.20;;;10.60;99.90;;;;;;5031312;28;20029;-52
2023/06/05 02:24:30;;;;;;;0.20;0.20;;;10.60;99.90;;;;;;5029606;28;20406;-53
2023/06/05 02:26:56;;;;;;;0.20;0.20;;;10.70;99.90;;;;;;5030713;28;20079;-54
2023/06/05 02:29:23;;;;;;;0.20;0.20;;;10.60;99.90;;;;;;5025798;28;20030;-51
2023/06/05 02:31:48;;;;;;;0.20;0.20;;;10.60;99.90;;;;;;5019180;28;20041;-53
2023/06/05 02:34:16;;;;;;;0.38;0.38;;;10.60;99.90;;;;;;5031118;28;20435;-51
2023/06/05 02:36:45;;;;;;;0.20;0.20;;;10.60;99.90;;;;;;5031398;28;20037;-51
2023/06/05 02:39:11;;;;;;;0.20;0.20;;;10.50;99.90;;;;;;5030777;28;20037;-53
2023/06/05 02:41:37;;;;;;;0.20;0.20;;;10.50;99.90;;;;;;5031151;28;20025;-55
2023/06/05 02:44:02;;;;;;;0.22;0.22;;;10.50;99.90;;;;;;5030997;28;20033;-53
2023/06/05 02:46:28;;;;;;;0.22;0.22;;;10.60;99.90;;;;;;5031188;28;20033;-56
2023/06/05 02:48:54;;;;;;;0.20;0.20;;;10.50;99.90;;;;;;5030964;28;20036;-52
2023/06/05 02:51:20;;;;;;;0.20;0.20;;;10.50;99.90;;;;;;5031117;28;20044;-56
2023/06/05 02:53:46;;;;;;;0.20;0.20;;;10.50;99.90;;;;;;5030955;28;20067;-52
2023/06/05 02:56:12;;;;;;;0.20;0.20;;;10.50;99.90;;;;;;5030928;28;20021;-51
2023/06/05 02:58:39;;;;;;;0.20;0.20;;;10.60;99.90;;;;;;5030551;28;20052;-51
2023/06/05 03:01:08;;;;;;;0.30;0.30;;;10.60;99.90;;;;;;5030746;28;20024;-56
2023/06/05 03:03:34;;;;;;;0.32;0.32;;;10.50;99.90;;;;;;5031045;28;20076;-55
2023/06/05 03:06:04;;;;;;;0.30;0.30;;;10.50;99.90;;;;;;5030881;28;20038;-52
2023/06/05 03:08:38;;;;;;;0.38;0.38;;;10.60;99.90;;;;;;5030820;28;20025;-54
2023/06/05 03:11:04;;;;;;;0.32;0.30;;;10.60;99.90;;;;;;5030718;28;20539;-54
2023/06/05 03:13:30;;;;;;;0.20;0.20;;;10.50;99.90;;;;;;5030670;28;20021;-51
2023/06/05 03:15:57;;;;;;;0.20;0.20;;;10.50;99.90;;;;;;5030693;28;20480;-52
2023/06/05 03:18:25;;;;;;;0.20;0.20;;;10.50;99.90;;;;;;5030682;28;20479;-50
2023/06/05 03:20:54;;;;;;;0.20;0.20;;;10.40;99.90;;;;;;5030640;28;20025;-51
2023/06/05 03:23:24;;;;;;;0.53;0.30;;;10.40;99.90;;;;;;5030698;28;20136;-53
2023/06/05 03:25:51;;;;;;;0.45;0.45;;;10.50;99.90;;;;;;5030690;28;20500;-53
2023/06/05 03:28:17;;;;;;;0.30;0.30;;;10.50;99.90;;;;;;5029881;28;20115;-50
2023/06/05 03:30:44;;;;;;;0.10;0.10;;;10.50;99.90;;;;;;5030640;28;20071;-53
2023/06/05 03:33:10;;;;;;;0.20;0.20;;;10.50;99.90;;;;;;5030363;28;20030;-55
2023/06/05 03:35:35;;;;;;;0.28;0.20;;;10.50;99.90;;;;;;5030616;28;20030;-52
2023/06/05 03:38:02;;;;;;;0.52;0.52;;;10.60;99.90;;;;;;5033031;28;20033;-50
2023/06/05 03:40:28;;;;;;;0.20;0.20;;;10.60;99.90;;;;;;5034404;28;20018;-51
2023/06/05 03:42:53;;;;;;;0.20;0.20;;;10.60;99.90;;;;;;5034162;28;20033;-51
2023/06/05 03:45:19;;;;;;;0.30;0.30;;;10.60;99.90;;;;;;5034256;28;20029;-53
2023/06/05 03:47:48;;;;;;;0.20;0.20;;;10.50;99.90;;;;;;5034409;28;20075;-56
2023/06/05 03:50:14;;;;;;;0.30;0.30;;;10.50;99.90;;;;;;5034095;28;20040;-54
2023/06/05 03:52:40;;;;;;;0.25;0.20;;;10.60;99.90;;;;;;5030238;28;20052;-54
2023/06/05 03:55:10;;;;;;;0.20;0.20;;;10.50;99.90;;;;;;5027383;28;21785;-52
2023/06/05 03:57:38;;;;;;;0.50;0.50;;;10.60;99.90;;;;;;5032908;28;20038;-52
2023/06/05 04:00:09;;;;;;;0.20;0.20;;;10.60;99.90;;;;;;5028624;28;20083;-52
2023/06/05 04:02:36;;;;;;;0.30;0.30;;;10.60;99.90;;;;;;5028455;28;20045;-53
2023/06/05 04:05:03;;;;;;;0.20;0.20;;;10.60;99.90;;;;;;5011747;28;20017;-54
2023/06/05 04:07:29;;;;;;;0.43;0.43;;;10.60;99.90;;;;;;5026486;28;20523;-52
2023/06/05 04:09:55;;;;;;;0.20;0.20;;;10.60;99.90;;;;;;5029919;28;20041;-53
2023/06/05 04:12:20;;;;;;;0.20;0.20;;;10.60;99.90;;;;;;5025756;28;20030;-54
2023/06/05 04:14:46;;;;;;;0.40;0.40;;;10.60;99.90;;;;;;5029611;28;20049;-57
2023/06/05 04:17:13;;;;;;;0.20;0.20;;;10.60;99.90;;;;;;5027190;28;20116;-53
2023/06/05 04:19:39;;;;;;;0.30;0.30;;;10.70;99.90;;;;;;5028558;28;20357;-57
2023/06/05 04:22:05;;;;;;;0.20;0.20;;;10.70;99.90;;;;;;5028846;28;20060;-53
2023/06/05 04:24:31;;;;;;;0.30;0.30;;;10.70;99.90;;;;;;5026417;28;20034;-49
2023/06/05 04:27:00;;;;;;;0.30;0.30;;;10.80;99.90;;;;;;5029347;28;20093;-49
2023/06/05 04:29:26;;;;;;;0.20;0.20;;;10.80;99.90;;;;;;5025742;28;20036;-49
2023/06/05 04:31:52;;;;;;;0.13;0.13;;;10.90;99.90;;;;;;5030120;28;20033;-53
2023/06/05 04:34:19;;;;;;;0.40;0.28;;;10.90;99.90;;;;;;5033668;28;20037;-52
2023/06/05 04:36:44;;;;;;;0.20;0.20;;;11.00;99.90;;;;;;5032922;28;20365;-56
2023/06/05 04:39:14;;;;;;;0.30;0.30;;;11.10;99.90;;;;;;5033301;28;20029;-57
2023/06/05 04:41:44;;;;;;;;;;;11.10;99.90;;;;;;5033548;28;20029;-54
2023/06/05 04:44:16;;;;;;;0.28;0.28;;;11.10;99.90;;;;;;5033296;28;19912;-47
2023/06/05 04:46:43;;;;;;;0.20;0.20;;;11.20;99.90;;;;;;5033407;28;20032;-53
2023/06/05 04:49:10;;;;;;;0.30;0.30;;;11.20;99.90;;;;;;5033117;28;20022;-51
2023/06/05 04:51:36;;;;;;;0.30;0.30;;;11.20;99.90;;;;;;5033126;28;20044;-55
2023/06/05 04:54:03;;;;;;;0.20;0.20;;;11.40;99.90;;;;;;5033076;28;20045;-52
2023/06/05 04:56:28;;;;;;;0.30;0.30;;;11.60;99.90;;;;;;5033364;28;20102;-52
2023/06/05 04:58:54;;;;;;;0.20;0.20;;;11.90;99.90;;;;;;5033165;28;20068;-50
2023/06/05 05:01:20;;;;;;;0.35;0.20;;;12.20;99.90;;;;;;5033225;28;20033;-55
2023/06/05 05:03:47;;;;;;;0.30;0.20;;;12.50;99.90;;;;;;5033040;28;20112;-55
2023/06/05 05:06:16;;;;;;;0.30;0.30;;;12.70;99.90;;;;;;5019415;28;20124;-51
2023/06/05 05:08:48;;;;;;;0.20;0.20;;;12.80;99.90;;;;;;5032990;28;20017;-52
2023/06/05 05:11:14;;;;;;;0.45;0.30;;;12.90;99.90;;;;;;5032466;28;20029;-54
2023/06/05 05:13:41;;;;;;;0.40;0.40;;;12.90;99.90;;;;;;5032944;28;20030;-57
2023/06/05 05:16:07;;;;;;;0.55;0.45;;;13.00;99.90;;;;;;5032475;28;20033;-50
2023/06/05 05:18:40;;;;;;;0.32;0.32;;;13.00;99.90;;;;;;5032510;28;20460;-53
2023/06/05 05:21:06;;;;;;;0.30;0.30;;;13.10;99.90;;;;;;5032739;28;20099;-50
2023/06/05 05:23:33;;;;;;;0.15;0.15;;;13.20;99.90;;;;;;5032740;28;20044;-50
2023/06/05 05:25:59;;;;;;;0.20;0.20;;;13.20;99.90;;;;;;5032514;28;20104;-54
2023/06/05 05:28:25;;;;;;;0.20;0.20;;;13.40;99.90;;;;;;5032751;28;20026;-53
2023/06/05 05:30:51;;;;;;;0.20;0.20;;;13.40;99.90;;;;;;5032581;28;20033;-51
2023/06/05 05:33:17;;;;;;;0.35;0.35;;;13.40;99.90;;;;;;5032112;28;20029;-55
2023/06/05 05:35:43;;;;;;;0.13;0.13;;;13.40;99.90;;;;;;5032711;28;20079;-55
2023/06/05 05:38:09;;;;;;;0.38;0.20;;;13.40;99.90;;;;;;5032259;28;20025;-53
2023/06/05 05:40:35;;;;;;;0.20;0.20;;;13.50;99.90;;;;;;5032294;28;20017;-53
2023/06/05 05:43:00;;;;;;;0.20;0.20;;;13.60;99.90;;;;;;5031906;28;20033;-54
2023/06/05 05:45:26;;;;;;;0.20;0.20;;;13.70;99.90;;;;;;5032249;28;20056;-52
2023/06/05 05:47:52;;;;;;;0.50;0.20;;;13.70;99.90;;;;;;5032188;28;20026;-56
2023/06/05 05:50:17;;;;;;;0.77;0.75;;;13.90;99.90;;;;;;5031942;28;20045;-55
2023/06/05 05:52:44;;;;;;;0.45;0.30;;;14.20;99.90;;;;;;5032309;28;20090;-50
2023/06/05 05:55:10;;;;;;;0.85;0.52;;;14.70;99.90;;;;;;5031943;28;20138;-51
2023/06/05 05:57:36;;;;;;;0.25;0.20;;;15.40;99.90;;;;;;5031887;28;20030;-53
2023/06/05 06:00:05;;;;;;;0.22;0.20;;;16.30;99.90;;;;;;5031609;28;20028;-51
2023/06/05 06:02:32;;;;;;;0.17;0.17;;;17.10;99.90;;;;;;5031633;28;20416;-54
2023/06/05 06:04:57;;;;;;;0.22;0.22;;;17.80;99.90;;;;;;5032174;28;20107;-51
2023/06/05 06:07:23;;;;;;;0.20;0.20;;;18.40;99.90;;;;;;5031670;28;20069;-50
2023/06/05 06:09:49;;;;;;;0.30;0.30;;;18.80;99.90;;;;;;5031983;28;20018;-55
2023/06/05 06:12:15;;;;;;;0.30;0.25;;;19.00;99.90;;;;;;5031308;28;20041;-56
2023/06/05 06:14:41;;;;;;;0.68;0.68;;;19.50;99.90;;;;;;5031437;28;20025;-53
2023/06/05 06:17:10;;;;;;;1.15;0.68;;;20.00;99.90;;;;;;5031635;28;20456;-53
2023/06/05 06:19:35;;;;;;;0.38;0.38;;;20.30;99.80;;;;;;5031590;28;20040;-55
2023/06/05 06:22:01;;;;;;;0.40;0.40;;;20.50;98.80;;;;;;5031796;28;20100;-54
2023/06/05 06:24:26;;;;;;;0.17;0.17;;;20.60;97.40;;;;;;5031450;28;20476;-54
2023/06/05 06:26:52;;;;;;;0.40;0.30;;;20.80;96.90;;;;;;5031481;28;20033;-55
2023/06/05 06:29:18;;;;;;;2.42;0.55;;;21.20;96.80;;;;;;5031263;28;20033;-52
2023/06/05 06:31:44;;;;;;;0.20;0.20;;;21.40;96.40;;;;;;5031517;28;20099;-53
2023/06/05 06:34:10;;;;;;;0.30;0.30;;;21.40;93.70;;;;;;5031501;28;20025;-53
2023/06/05 06:36:40;;;;;;;0.22;0.22;;;21.40;93.90;;;;;;5031216;28;20037;-52
2023/06/05 06:39:07;;;;;;;0.57;0.50;;;21.80;92.60;;;;;;5031014;28;20559;-55
2023/06/05 06:41:34;;;;;;;0.57;0.25;;;22.20;91.30;;;;;;5030827;28;20021;-55
2023/06/05 06:44:00;;;;;;;0.82;0.80;;;22.10;89.00;;;;;;5030873;28;20026;-53
2023/06/05 06:46:26;;;;;;;0.65;0.40;;;22.40;89.00;;;;;;5030625;28;20033;-55
2023/06/05 06:48:52;;;;;;;0.30;0.30;;;22.40;89.40;;;;;;5014900;28;20034;-57
2023/06/05 06:51:17;;;;;;;0.50;0.28;;;22.60;85.10;;;;;;5016606;28;20682;-55
2023/06/05 06:53:43;;;;;;;0.20;0.20;;;22.40;84.40;;;;;;5029483;28;20088;-55
2023/06/05 06:56:09;;;;;;;0.40;0.40;;;22.50;86.60;;;;;;5030623;28;20025;-55
2023/06/05 06:58:36;;;;;;;0.38;0.30;;;22.10;82.10;;;;;;5030614;28;20075;-52
2023/06/05 07:01:03;;;;;;;1.08;0.50;;;22.40;85.70;;;;;;5029439;28;20034;-57
2023/06/05 07:03:29;;;;;;;0.30;0.30;;;22.60;84.20;;;;;;5030899;28;20036;-53
2023/06/05 07:05:55;;;;;;;0.20;0.20;;;22.90;81.20;;;;;;5015463;28;20026;-52
2023/06/05 07:08:20;;;;;;;0.57;0.45;;;22.80;80.60;;;;;;5029433;28;20025;-53
2023/06/05 07:10:46;;;;;;;0.30;0.30;;;22.40;81.60;;;;;;5027537;28;20025;-52
2023/06/05 07:13:12;;;;;;;0.45;0.35;;;22.30;84.40;;;;;;5028539;28;20061;-55
2023/06/05 07:15:37;;;;;;;0.85;0.45;;;21.80;81.50;;;;;;5029332;28;20026;-54
2023/06/05 07:18:03;;;;;;;0.30;0.30;;;20.90;84.50;;;;;;5029146;28;20029;-51
2023/06/05 07:20:28;;;;;;;0.45;0.38;;;21.30;85.90;;;;;;5029265;28;20073;-55
2023/06/05 07:22:54;;;;;;;0.77;0.40;;;22.20;89.80;;;;;;5027771;28;20072;-55
2023/06/05 07:25:22;;;;;;;0.20;0.20;;;22.90;82.90;;;;;;5029032;28;20369;-58
2023/06/05 07:27:48;;;;;;;0.60;0.38;;;23.30;81.50;;;;;;5027470;28;20439;-58
2023/06/05 07:30:14;;;;;;;0.38;0.38;;;23.80;78.00;;;;;;5029047;28;20108;-54
2023/06/05 07:32:42;;;;;;;0.40;0.40;;;24.30;78.70;;;;;;5029540;28;20074;-57
2023/06/05 07:35:08;;;;;;;0.52;0.40;;;24.70;76.40;;;;;;5030274;28;20048;-57
2023/06/05 07:37:35;;;;;;;0.20;0.20;;;24.80;74.50;;;;;;5030513;28;20025;-55
2023/06/05 07:40:01;;;;;;;0.77;0.47;;;24.60;71.20;;;;;;5030101;28;20057;-54
2023/06/05 07:42:26;;;;;;;0.20;0.20;;;24.70;76.40;;;;;;5030174;28;20084;-55
2023/06/05 07:44:52;;;;;;;0.40;0.40;;;24.60;74.50;;;;;;5030404;28;20117;-57
2023/06/05 07:47:17;;;;;;;0.32;0.32;;;24.90;73.00;;;;;;5030256;28;20021;-55
2023/06/05 07:49:43;;;;;;;0.45;0.28;;;24.80;69.50;;;;;;5030465;28;20064;-55
2023/06/05 07:52:09;;;;;;;1.45;0.55;;;24.50;71.20;;;;;;5030122;28;20037;-57
2023/06/05 07:54:34;;;;;;;0.30;0.30;;;24.90;75.90;;;;;;5028709;28;20401;-57
2023/06/05 07:57:00;;;;;;;1.15;0.40;;;24.90;70.90;;;;;;5029653;28;20112;-56
2023/06/05 07:59:27;;;;;;;0.50;0.40;;;25.10;75.00;;;;;;5030157;28;20025;-58
2023/06/05 08:01:55;;;;;;;0.55;0.40;;;25.60;74.00;;;;;;5030259;28;20546;-56
2023/06/05 08:04:24;;;;;;;0.30;0.30;;;25.60;68.60;;;;;;5030102;28;20068;-57
2023/06/05 08:06:50;;;;;;;0.77;0.50;;;25.70;68.50;;;;;;5030414;28;20025;-57
2023/06/05 08:09:17;;;;;;;0.50;0.30;;;25.40;66.50;;;;;;5029837;28;20064;-54
2023/06/05 08:11:43;;;;;;;0.57;0.50;;;25.30;69.40;;;;;;5030195;28;20029;-55
2023/06/05 08:14:09;;;;;;;0.50;0.50;;;25.50;70.40;;;;;;5030067;28;20362;-57
2023/06/05 08:16:35;;;;;;;0.52;0.30;;;25.90;69.20;;;;;;5030068;28;20610;-57
2023/06/05 08:19:02;;;;;;;1.05;0.73;;;25.90;68.80;;;;;;5029835;28;20075;-55
2023/06/05 08:21:27;;;;;;;0.30;0.30;;;25.90;67.00;;;;;;5017217;28;20037;-56
2023/06/05 08:23:53;;;;;;;0.90;0.50;;;26.00;66.80;;;;;;5015898;28;20033;-57
2023/06/05 08:26:20;;;;;;;0.65;0.35;;;26.30;68.80;;;;;;5020415;28;20061;-60
2023/06/05 08:28:46;;;;;;;0.30;0.30;;;26.50;65.30;;;;;;5026942;28;20401;-57
2023/06/05 08:31:12;;;;;;;0.40;0.30;;;26.60;68.60;;;;;;5022677;28;20682;-54
2023/06/05 08:33:37;;;;;;;0.30;0.30;;;26.70;66.20;;;;;;5029883;28;20032;-53
2023/06/05 08:36:05;;;;;;;0.68;0.52;;;26.70;66.60;;;;;;5033372;28;20440;-48
2023/06/05 08:38:31;;;;;;;0.57;0.30;;;27.00;66.90;;;;;;5033328;28;20037;-52
2023/06/05 08:41:01;;;;;;;0.63;0.40;;;26.80;64.40;;;;;;5033419;28;20026;-53
2023/06/05 08:43:28;;;;;;;0.30;0.30;;;26.40;63.10;;;;;;5032939;28;20033;-53
2023/06/05 08:45:55;;;;;;;0.60;0.40;;;26.20;62.80;;;;;;5031182;28;20021;-54
2023/06/05 08:48:21;;;;;;;0.88;0.70;;;26.30;66.70;;;;;;5030763;28;20025;-55
2023/06/05 08:50:51;;;;;;;0.30;0.30;;;26.40;67.40;;;;;;5025159;28;20014;-49
2023/06/05 08:53:17;;;;;;;0.40;0.40;;;26.50;65.00;;;;;;5017744;28;20084;-50
2023/06/05 08:55:50;;;;;;;0.43;0.43;;;26.60;67.00;;;;;;5032233;28;20469;-49
2023/06/05 08:58:16;;;;;;;0.35;0.30;;;26.30;63.20;;;;;;5030944;28;20488;-53
2023/06/05 09:00:42;;;;;;;0.30;0.30;;;25.90;61.50;;;;;;5024215;28;20602;-52
2023/06/05 09:03:15;;;;;;;0.45;0.30;;;25.60;65.50;;;;;;5024153;28;20052;-49
2023/06/05 09:05:40;;;;;;;0.60;0.40;;;25.60;64.80;;;;;;5028707;28;20025;-52
2023/06/05 09:08:06;;;;;;;0.28;0.28;;;25.90;66.90;;;;;;5032931;28;20545;-51
2023/06/05 09:10:32;;;;;;;0.25;0.25;;;26.10;64.20;;;;;;5025951;28;20104;-50
2023/06/05 09:13:01;;;;;;;0.40;0.40;;;26.30;65.00;;;;;;5027722;28;20572;-48
2023/06/05 09:15:30;;;;;;;;;;;26.70;64.70;;;;;;5024692;28;20022;-54
2023/06/05 09:18:08;;;;;;;0.30;0.30;;;27.00;66.60;;;;;;5026330;28;19909;-51
2023/06/05 09:20:35;;;;;;;0.30;0.30;;;26.10;61.60;;;;;;5024306;28;20113;-48
2023/06/05 09:23:02;;;;;;;0.30;0.30;;;26.40;65.90;;;;;;5026119;28;20013;-54
2023/06/05 09:25:47;;;;;;;0.40;0.40;;;26.60;63.10;;;;;;5025853;28;20029;-54
2023/06/05 09:28:14;;;;;;;0.70;0.40;;;26.00;63.40;;;;;;5024786;28;20030;-55
2023/06/05 09:30:57;;;;;;;0.30;0.30;;;26.40;68.50;;;;;;5025811;28;20029;-53
2023/06/05 09:33:28;;;;;;;0.47;0.35;;;26.40;65.20;;;;;;5026309;28;20033;-53
2023/06/05 09:36:11;;;;;;;0.35;0.35;;;26.60;64.50;;;;;;5009780;28;20025;-53
2023/06/05 09:38:39;;;;;;;0.43;0.32;;;26.50;63.60;;;;;;5012685;28;20022;-51
2023/06/05 09:41:10;;;;;;;0.38;0.30;;;26.40;64.70;;;;;;5012711;28;20026;-55
2023/06/05 09:43:36;;;;;;;0.47;0.47;;;26.70;63.80;;;;;;5020775;28;20033;-54
2023/06/05 09:46:10;;;;;;;0.77;0.47;;;26.70;65.30;;;;;;5012698;28;20022;-50
2023/06/05 09:48:36;;;;;;;0.77;0.68;;;26.90;62.70;;;;;;5011878;28;20038;-51
2023/06/05 09:51:17;;;;;;;0.38;0.35;;;26.60;64.50;;;;;;5011251;28;20528;-54
2023/06/05 09:53:47;;;;;;;0.30;0.30;;;27.00;63.10;;;;;;5012056;28;20061;-54
2023/06/05 09:56:17;;;;;;;0.55;0.45;;;26.60;60.80;;;;;;5012412;28;20208;-54
2023/06/05 09:58:52;;;;;;;0.40;0.40;;;26.80;64.90;;;;;;5022310;28;20037;-52
2023/06/05 10:01:24;;;;;;;2.30;0.60;;;27.30;63.80;;;;;;5031387;28;20033;-55
2023/06/05 10:03:57;;;;;;;0.40;0.38;;;27.30;63.50;;;;;;5031007;28;20025;-53
2023/06/05 10:06:23;;;;;;;0.40;0.40;;;27.40;63.10;;;;;;5025143;28;20022;-56
2023/06/05 10:08:52;;;;;;;0.73;0.47;;;27.70;64.20;;;;;;5018263;28;20022;-55
2023/06/05 10:11:20;;;;;;;0.80;0.68;;;27.40;62.60;;;;;;5015896;28;20044;-54
2023/06/05 10:13:47;;;;;;;0.20;0.20;;;27.20;63.70;;;;;;5028054;28;20041;-55
2023/06/05 10:16:13;;;;;;;0.52;0.40;;;27.60;65.40;;;;;;5015708;28;20037;-45
2023/06/05 10:18:40;;;;;;;0.40;0.32;;;28.00;61.80;;;;;;5018025;28;20436;-56
2023/06/05 10:21:06;;;;;;;0.68;0.45;;;28.00;63.80;;;;;;5031641;28;20552;-51
2023/06/05 10:23:33;;;;;;;0.30;0.30;;;27.20;60.60;;;;;;5017700;28;20029;-52
2023/06/05 10:26:01;;;;;;;0.20;0.20;;;26.70;63.20;;;;;;5031500;28;20021;-56
2023/06/05 10:28:43;;;;;;;0.32;0.32;;;26.90;62.00;;;;;;5031061;28;20487;-52
2023/06/05 10:31:26;;;;;;;0.20;0.20;;;27.00;62.30;;;;;;5031332;28;20040;-54
2023/06/05 10:34:26;;;;;;;0.88;0.60;;;27.30;62.20;;;;;;5031287;28;20387;-50
2023/06/05 10:37:23;;;;;;;0.40;0.38;;;27.00;61.20;;;;;;5031162;28;20036;-51
2023/06/05 10:39:50;;;;;;;0.30;0.30;;;27.40;65.70;;;;;;5031224;28;20100;-55
2023/06/05 10:42:29;;;;;;;0.43;0.43;;;26.70;59.90;;;;;;5031337;28;20026;-56
2023/06/05 10:44:55;;;;;;;0.75;0.40;;;26.50;64.10;;;;;;5031074;28;20384;-56
2023/06/05 10:47:51;;;;;;;0.25;0.25;;;26.80;63.50;;;;;;5030667;28;20025;-51
2023/06/05 10:50:19;;;;;;;0.43;0.30;;;27.20;64.20;;;;;;5030983;28;20120;-57
2023/06/05 10:52:49;;;;;;;0.30;0.30;;;27.20;66.10;;;;;;5030918;28;20030;-57
2023/06/05 10:55:15;;;;;;;0.30;0.30;;;27.20;62.40;;;;;;5030776;28;20519;-52
2023/06/05 10:58:03;;;;;;;0.30;0.30;;;27.40;65.30;;;;;;5030691;28;20032;-52
2023/06/05 11:00:30;;;;;;;0.40;0.30;;;27.70;63.00;;;;;;5030726;28;20037;-52
2023/06/05 11:02:56;;;;;;;0.30;0.30;;;27.80;65.70;;;;;;5030703;28;20036;-57
2023/06/05 11:05:22;;;;;;;0.68;0.40;;;27.70;62.20;;;;;;5028587;28;20032;-50
2023/06/05 11:08:07;;;;;;;0.30;0.30;;;27.10;61.80;;;;;;5030576;28;20021;-55
2023/06/05 11:10:33;;;;;;;0.30;0.30;;;27.10;64.30;;;;;;5022534;28;20026;-49
2023/06/05 11:12:59;;;;;;;0.40;0.40;;;27.30;61.10;;;;;;5029418;28;20440;-55
2023/06/05 11:15:28;;;;;;;0.47;0.40;;;27.20;63.70;;;;;;5024333;28;20484;-49
2023/06/05 11:17:53;;;;;;;0.22;0.22;;;27.20;62.40;;;;;;5030512;28;20036;-48
2023/06/05 11:20:28;;;;;;;0.30;0.25;;;26.80;60.20;;;;;;5030729;28;20037;-57
2023/06/05 11:22:53;;;;;;;0.50;0.40;;;26.80;62.10;;;;;;5030320;28;20036;-52
2023/06/05 11:25:24;;;;;;;0.65;0.57;;;26.80;61.20;;;;;;5030605;28;20033;-53
2023/06/05 11:28:01;;;;;;;0.20;0.20;;;26.60;64.10;;;;;;5028710;28;20037;-52
2023/06/05 11:30:32;;;;;;;0.40;0.40;;;26.90;66.10;;;;;;5010910;28;20481;-53
2023/06/05 11:33:14;;;;;;;0.20;0.20;;;26.90;63.80;;;;;;5024133;28;20060;-51
2023/06/05 11:35:43;;;;;;;0.20;0.20;;;27.10;63.70;;;;;;5024517;28;20022;-57
2023/06/05 11:38:16;;;;;;;0.45;0.45;;;27.10;62.40;;;;;;5018288;28;20026;-57
2023/06/05 11:40:43;;;;;;;0.50;0.40;;;27.10;64.00;;;;;;5029169;28;20025;-57
2023/06/05 11:43:12;;;;;;;0.43;0.40;;;27.10;61.50;;;;;;5030232;28;20025;-56
2023/06/05 11:45:58;;;;;;;1.05;0.47;;;26.80;63.70;;;;;;5030221;28;20091;-54
2023/06/05 11:48:27;;;;;;;0.43;0.40;;;26.80;61.00;;;;;;5029907;28;20061;-54
2023/06/05 11:51:05;;;;;;;0.40;0.40;;;26.50;63.30;;;;;;5030094;28;20025;-54
2023/06/05 11:53:32;;;;;;;0.20;0.20;;;26.40;61.20;;;;;;5030026;28;20049;-53
2023/06/05 11:58:32;;;;;;;0.50;0.40;;;26.40;63.20;;;;;;5031926;28;20029;-52
2023/06/05 12:01:22;;;;;;;0.28;0.28;;;26.30;61.80;;;;;;5033099;28;20480;-59
2023/06/05 12:04:01;;;;;;;0.25;0.25;;;26.20;60.90;;;;;;5033788;28;20371;-54
2023/06/05 12:06:28;;;;;;;0.30;0.30;;;26.20;65.70;;;;;;5010252;28;20038;-48
2023/06/05 12:09:06;;;;;;;0.55;0.50;;;25.90;60.70;;;;;;5023050;28;20064;-51
2023/06/05 12:11:31;;;;;;;0.52;0.38;;;25.60;65.00;;;;;;5020530;28;20076;-49
2023/06/05 12:13:57;;;;;;;0.40;0.40;;;25.80;62.50;;;;;;5023418;28;20034;-48
2023/06/05 12:16:33;;;;;;;0.20;0.20;;;25.30;61.60;;;;;;5026214;28;20044;-54
2023/06/05 12:18:59;;;;;;;0.20;0.20;;;25.00;65.20;;;;;;5023974;28;20022;-48
2023/06/05 12:21:27;;;;;;;0.30;0.30;;;24.90;64.20;;;;;;5025705;28;20392;-49
2023/06/05 12:24:04;;;;;;;0.50;0.45;;;25.00;63.60;;;;;;5027381;28;20033;-52
2023/06/05 12:26:32;;;;;;;0.40;0.40;;;24.80;65.50;;;;;;5024179;28;20030;-52
2023/06/05 12:29:05;;;;;;;2.92;1.40;;;24.60;63.00;;;;;;5022561;28;20027;-50
2023/06/05 12:31:39;;;;;;;0.30;0.30;;;24.60;65.80;;;;;;5023758;28;20040;-53
2023/06/05 12:34:05;;;;;;;0.50;0.50;;;24.60;65.90;;;;;;5030369;28;20111;-56
2023/06/05 12:36:41;;;;;;;0.20;0.20;;;24.70;65.40;;;;;;5032580;28;20036;-52
2023/06/05 12:39:07;;;;;;;0.35;0.30;;;24.70;63.70;;;;;;5020818;28;20055;-47
2023/06/05 12:41:36;;;;;;;0.25;0.22;;;24.60;64.10;;;;;;5015069;28;20457;-43
2023/06/05 12:44:04;;;;;;;0.55;0.35;;;24.40;64.70;;;;;;5032924;28;20057;-48
2023/06/05 12:46:31;;;;;;;0.20;0.20;;;24.60;69.10;;;;;;5032788;28;20022;-46
2023/06/05 12:48:58;;;;;;;0.30;0.30;;;24.50;64.80;;;;;;5029851;28;20470;-51
2023/06/05 12:51:28;;;;;;;0.20;0.20;;;24.70;67.30;;;;;;5026476;28;20124;-50
2023/06/05 12:53:55;;;;;;;0.30;0.30;;;24.80;64.50;;;;;;5026098;28;20048;-51
2023/06/05 12:56:24;;;;;;;0.40;0.30;;;24.80;65.50;;;;;;5022920;28;20029;-48